createdAt,value
2022-08-04T13:47:38.444Z,8.98
2022-08-04T13:50:23.889Z,15.30
2022-08-04T13:52:57.141Z,10.27
2022-08-04T13:55:30.660Z,15.20
2022-08-04T13:58:06.310Z,8.60
2022-08-04T14:01:00.322Z,8.05
2022-08-04T14:03:53.299Z,7.82
2022-08-04T14:06:22.109Z,5.10
2022-08-04T14:09:02.157Z,5.75
2022-08-04T14:12:09.022Z,6.07
2022-08-04T14:14:46.744Z,5.32
2022-08-04T14:17:20.477Z,7.35
2022-08-04T14:19:52.270Z,5.45
2022-08-04T14:22:31.411Z,5.78
2022-08-04T14:25:18.691Z,4.93
2022-08-04T14:27:55.050Z,4.72
2022-08-04T14:30:38.097Z,4.45
2022-08-04T14:34:03.655Z,6.55
2022-08-04T14:35:59.323Z,7.30
2022-08-04T14:39:00.788Z,4.75
2022-08-04T14:41:30.529Z,4.53
2022-08-04T14:44:00.782Z,5.07
2022-08-04T14:46:30.247Z,5.53
2022-08-04T14:49:13.052Z,4.47
2022-08-04T14:51:53.538Z,4.53
2022-08-04T14:54:29.269Z,4.35
2022-08-04T14:57:07.058Z,4.13
2022-08-04T15:00:02.495Z,4.47
2022-08-04T15:02:31.430Z,3.90
2022-08-04T15:06:00.927Z,4.32
2022-08-04T15:07:47.655Z,4.32
2022-08-04T15:10:15.580Z,4.88
2022-08-04T15:12:43.522Z,4.60
2022-08-04T15:15:35.208Z,5.80
2022-08-04T15:17:59.644Z,6.65
2022-08-04T15:20:27.498Z,4.97
2022-08-04T15:22:55.194Z,6.22
2022-08-04T15:25:23.220Z,4.90
2022-08-04T15:27:52.296Z,4.30
2022-08-04T15:30:20.086Z,4.32
2022-08-04T15:32:54.781Z,4.07
2022-08-04T15:35:30.884Z,4.40
2022-08-04T15:38:32.859Z,4.70
2022-08-04T15:41:09.569Z,4.00
2022-08-04T15:44:21.720Z,4.40
2022-08-04T15:46:51.839Z,4.30
2022-08-04T15:49:21.999Z,4.55
2022-08-04T15:52:25.481Z,5.10
2022-08-04T15:55:37.757Z,3.70
2022-08-04T15:58:11.186Z,4.53
2022-08-04T16:00:51.181Z,4.35
2022-08-04T16:03:57.920Z,3.60
2022-08-04T16:06:29.028Z,3.97
2022-08-04T16:09:02.253Z,5.25
2022-08-04T16:11:32.213Z,5.97
2022-08-04T16:14:00.069Z,5.20
2022-08-04T16:16:29.857Z,4.00
2022-08-04T16:19:05.631Z,4.72
2022-08-04T16:21:49.709Z,5.20
2022-08-04T16:24:30.572Z,4.07
2022-08-04T16:27:00.749Z,4.07
2022-08-04T16:29:42.735Z,4.25
2022-08-04T16:32:13.855Z,4.10
2022-08-04T16:34:54.491Z,4.13
2022-08-04T16:37:32.515Z,4.03
2022-08-04T16:40:33.696Z,4.13
2022-08-04T16:43:05.539Z,3.90
2022-08-04T16:45:47.761Z,4.22
2022-08-04T16:50:57.459Z,7.57
2022-08-04T16:53:52.266Z,3.92
2022-08-04T16:56:33.447Z,3.80
2022-08-04T16:59:09.893Z,6.07
2022-08-04T17:01:39.344Z,4.25
2022-08-04T17:04:09.498Z,3.85
2022-08-04T17:06:42.017Z,3.70
2022-08-04T17:09:14.080Z,4.10
2022-08-04T17:14:10.618Z,4.03
2022-08-04T17:16:41.253Z,3.80
2022-08-04T17:19:24.198Z,3.95
2022-08-04T17:22:07.533Z,4.80
2022-08-04T17:24:41.043Z,3.40
2022-08-04T17:28:05.748Z,3.83
2022-08-04T17:29:58.312Z,4.18
2022-08-04T17:32:28.509Z,4.05
2022-08-04T17:35:00.297Z,4.38
2022-08-04T17:37:39.455Z,5.05
2022-08-04T17:40:25.557Z,5.30
2022-08-04T17:44:04.773Z,3.72
2022-08-04T17:46:28.624Z,3.42
2022-08-04T17:49:09.198Z,3.50
2022-08-04T17:52:04.112Z,4.43
2022-08-04T17:54:39.726Z,3.58
2022-08-04T17:57:22.261Z,5.00
2022-08-04T17:59:59.580Z,4.90
2022-08-04T18:02:35.170Z,3.35
2022-08-04T18:05:12.204Z,4.47
2022-08-04T18:08:38.460Z,5.30
2022-08-04T18:10:55.562Z,4.00
2022-08-04T18:13:28.343Z,3.38
2022-08-04T18:16:14.523Z,3.17
2022-08-04T18:19:13.220Z,3.70
2022-08-04T18:21:46.333Z,4.65
2022-08-04T18:24:35.896Z,3.53
2022-08-04T18:27:20.370Z,4.07
2022-08-04T18:30:14.903Z,3.72
2022-08-04T18:33:24.600Z,4.32
2022-08-04T18:36:34.199Z,3.05
2022-08-04T18:38:24.124Z,2.80
2022-08-04T18:40:55.746Z,2.60
2022-08-04T18:43:27.851Z,3.00
2022-08-04T18:45:59.473Z,6.87
2022-08-04T18:48:36.089Z,4.45
2022-08-04T18:51:23.257Z,3.40
2022-08-04T18:53:55.229Z,3.50
2022-08-04T18:56:29.564Z,4.95
2022-08-04T18:59:10.313Z,3.05
2022-08-04T19:02:16.962Z,4.05
2022-08-04T19:04:32.096Z,4.32
2022-08-04T19:07:23.114Z,2.95
2022-08-04T19:09:51.834Z,3.80
2022-08-04T19:12:27.424Z,4.13
2022-08-04T19:15:10.479Z,3.33
2022-08-04T19:17:55.059Z,2.45
2022-08-04T19:20:26.971Z,3.17
2022-08-04T19:24:30.648Z,4.45
2022-08-04T19:26:01.438Z,4.30
2022-08-04T19:28:34.987Z,2.25
2022-08-04T19:31:05.784Z,4.07
2022-08-04T19:33:59.450Z,4.57
2022-08-04T19:36:35.597Z,4.35
2022-08-04T19:39:11.214Z,4.40
2022-08-04T19:42:04.243Z,2.60
2022-08-04T19:44:30.074Z,2.80
2022-08-04T19:47:00.547Z,3.13
2022-08-04T19:50:05.433Z,3.33
2022-08-04T19:52:33.934Z,4.93
2022-08-04T19:55:09.779Z,3.10
2022-08-04T19:57:46.373Z,2.50
2022-08-04T20:00:15.226Z,2.70
2022-08-04T20:02:48.317Z,2.40
2022-08-04T20:05:16.187Z,5.70
2022-08-04T20:07:44.100Z,4.22
2022-08-04T20:10:14.434Z,5.55
2022-08-04T20:12:42.347Z,3.90
2022-08-04T20:15:12.434Z,3.17
2022-08-04T20:18:07.454Z,5.25
2022-08-04T20:20:32.863Z,3.95
2022-08-04T20:23:00.421Z,7.07
2022-08-04T20:25:36.573Z,3.67
2022-08-04T20:28:09.410Z,3.75
2022-08-04T20:30:53.720Z,3.35
2022-08-04T20:33:21.905Z,2.35
2022-08-04T20:36:05.651Z,2.97
2022-08-04T20:38:34.527Z,5.28
2022-08-04T20:41:03.055Z,3.72
2022-08-04T20:43:31.415Z,3.42
2022-08-04T20:45:59.809Z,2.38
2022-08-04T20:48:33.783Z,2.13
2022-08-04T20:51:01.671Z,2.08
2022-08-04T20:53:32.809Z,3.67
2022-08-04T20:56:19.292Z,3.55
2022-08-04T20:59:00.067Z,2.85
2022-08-04T21:01:29.847Z,2.97
2022-08-04T21:04:28.003Z,3.67
2022-08-04T21:06:58.100Z,2.28
2022-08-04T21:09:37.859Z,4.13
2022-08-04T21:12:26.858Z,3.25
2022-08-04T21:15:14.452Z,2.05
2022-08-04T21:17:58.991Z,2.10
2022-08-04T21:20:35.300Z,2.95
2022-08-04T21:23:05.034Z,2.80
2022-08-04T21:25:42.521Z,2.47
2022-08-04T21:28:11.148Z,1.85
2022-08-04T21:30:53.906Z,3.13
2022-08-04T21:33:49.609Z,2.88
2022-08-04T21:36:16.127Z,2.28
2022-08-04T21:38:51.556Z,2.08
2022-08-04T21:43:53.325Z,2.72
2022-08-04T21:46:20.865Z,2.25
2022-08-04T21:48:48.616Z,1.45
2022-08-04T21:51:57.856Z,3.58
2022-08-04T21:54:10.832Z,2.40
2022-08-04T21:56:42.925Z,1.58
2022-08-04T21:59:23.701Z,1.85
2022-08-04T22:04:48.677Z,4.47
2022-08-04T22:07:17.100Z,3.33
2022-08-04T22:10:00.076Z,2.17
2022-08-04T22:12:29.972Z,4.07
2022-08-04T22:14:59.879Z,1.90
2022-08-04T22:17:35.129Z,2.30
2022-08-04T22:20:04.630Z,5.32
2022-08-04T22:22:35.392Z,3.00
2022-08-04T22:28:01.431Z,3.00
2022-08-04T22:30:36.836Z,4.25
2022-08-04T22:33:08.154Z,6.18
2022-08-04T22:35:48.673Z,2.72
2022-08-04T22:38:29.014Z,4.25
2022-08-04T22:41:09.335Z,2.42
2022-08-04T22:43:37.855Z,2.70
2022-08-04T22:46:11.974Z,1.50
2022-08-04T22:48:43.711Z,2.22
2022-08-04T22:51:12.805Z,1.73
2022-08-04T22:53:40.938Z,1.70
2022-08-04T22:56:10.523Z,2.88
2022-08-04T22:58:45.200Z,2.53
2022-08-04T23:01:15.515Z,3.00
2022-08-04T23:03:51.149Z,4.13
2022-08-04T23:06:28.489Z,2.85
2022-08-04T23:08:57.828Z,3.88
2022-08-04T23:11:34.671Z,3.15
2022-08-04T23:14:04.505Z,2.00
2022-08-04T23:16:32.255Z,2.63
2022-08-04T23:19:00.316Z,2.45
2022-08-04T23:21:40.836Z,2.30
2022-08-04T23:24:09.497Z,2.50
2022-08-04T23:26:37.088Z,3.10
2022-08-04T23:29:04.675Z,2.97
2022-08-04T23:31:40.747Z,3.67
2022-08-04T23:34:09.321Z,3.67
2022-08-04T23:36:40.796Z,2.25
2022-08-04T23:39:10.191Z,3.70
2022-08-04T23:41:54.616Z,2.72
2022-08-04T23:44:26.911Z,3.15
2022-08-04T23:46:59.466Z,4.28
2022-08-04T23:52:28.107Z,1.98
2022-08-04T23:55:01.009Z,2.67
2022-08-04T23:57:30.883Z,2.38
